sensor_id;sensor_type;location;lat;lon;timestamp;temperature;humidity
28524;DHT22;15734;50.904;6.922;2023-11-21T00:00:33;9.60;99.90
28524;DHT22;15734;50.904;6.922;2023-11-21T00:02:59;9.60;99.90
28524;DHT22;15734;50.904;6.922;2023-11-21T00:05:24;9.60;99.90
28524;DHT22;15734;50.904;6.922;2023-11-21T00:07:50;9.60;99.90
28524;DHT22;15734;50.904;6.922;2023-11-21T00:10:16;9.60;99.90
28524;DHT22;15734;50.904;6.922;2023-11-21T00:12:42;9.60;99.90
28524;DHT22;15734;50.904;6.922;2023-11-21T00:15:09;9.60;99.90
28524;DHT22;15734;50.904;6.922;2023-11-21T00:17:36;9.60;99.90
28524;DHT22;15734;50.904;6.922;2023-11-21T00:20:03;9.60;99.90
28524;DHT22;15734;50.904;6.922;2023-11-21T00:22:32;9.60;99.90
28524;DHT22;15734;50.904;6.922;2023-11-21T00:24:58;9.50;99.90
28524;DHT22;15734;50.904;6.922;2023-11-21T00:27:23;9.50;99.90
28524;DHT22;15734;50.904;6.922;2023-11-21T00:29:49;9.50;99.90
28524;DHT22;15734;50.904;6.922;2023-11-21T00:32:14;9.60;99.90
28524;DHT22;15734;50.904;6.922;2023-11-21T00:34:40;9.50;99.90
28524;DHT22;15734;50.904;6.922;2023-11-21T00:37:05;9.50;99.90
28524;DHT22;15734;50.904;6.922;2023-11-21T00:39:31;9.50;99.90
28524;DHT22;15734;50.904;6.922;2023-11-21T00:41:58;9.50;99.90
28524;DHT22;15734;50.904;6.922;2023-11-21T00:44:23;9.50;99.90
28524;DHT22;15734;50.904;6.922;2023-11-21T00:46:49;9.50;99.90
28524;DHT22;15734;50.904;6.922;2023-11-21T00:49:15;9.50;99.90
28524;DHT22;15734;50.904;6.922;2023-11-21T00:51:41;9.50;99.90
28524;DHT22;15734;50.904;6.922;2023-11-21T00:54:06;9.50;99.90
28524;DHT22;15734;50.904;6.922;2023-11-21T00:56:32;9.50;99.90
28524;DHT22;15734;50.904;6.922;2023-11-21T00:58:57;9.50;99.90
28524;DHT22;15734;50.904;6.922;2023-11-21T01:01:23;9.40;99.90
28524;DHT22;15734;50.904;6.922;2023-11-21T01:03:49;9.40;99.90
28524;DHT22;15734;50.904;6.922;2023-11-21T01:06:15;9.50;99.90
28524;DHT22;15734;50.904;6.922;2023-11-21T01:08:41;9.40;99.90
28524;DHT22;15734;50.904;6.922;2023-11-21T01:11:06;9.40;99.90
28524;DHT22;15734;50.904;6.922;2023-11-21T01:13:38;9.40;99.90
28524;DHT22;15734;50.904;6.922;2023-11-21T01:16:04;9.40;99.90
28524;DHT22;15734;50.904;6.922;2023-11-21T01:18:31;9.40;99.90
28524;DHT22;15734;50.904;6.922;2023-11-21T01:20:57;9.40;99.90
28524;DHT22;15734;50.904;6.922;2023-11-21T01:23:22;9.30;99.90
28524;DHT22;15734;50.904;6.922;2023-11-21T01:25:48;9.30;99.90
28524;DHT22;15734;50.904;6.922;2023-11-21T01:28:14;9.40;99.90
28524;DHT22;15734;50.904;6.922;2023-11-21T01:30:39;9.40;99.90
28524;DHT22;15734;50.904;6.922;2023-11-21T01:33:05;9.30;99.90
28524;DHT22;15734;50.904;6.922;2023-11-21T01:35:30;9.40;99.90
28524;DHT22;15734;50.904;6.922;2023-11-21T01:37:56;9.40;99.90
28524;DHT22;15734;50.904;6.922;2023-11-21T01:40:22;9.40;99.90
28524;DHT22;15734;50.904;6.922;2023-11-21T01:42:47;9.40;99.90
28524;DHT22;15734;50.904;6.922;2023-11-21T01:45:14;9.40;99.90
28524;DHT22;15734;50.904;6.922;2023-11-21T01:47:41;9.30;99.90
28524;DHT22;15734;50.904;6.922;2023-11-21T01:50:08;9.40;99.90
28524;DHT22;15734;50.904;6.922;2023-11-21T01:52:37;9.40;99.90
28524;DHT22;15734;50.904;6.922;2023-11-21T01:55:05;9.30;99.90
28524;DHT22;15734;50.904;6.922;2023-11-21T01:57:31;9.30;99.90
28524;DHT22;15734;50.904;6.922;2023-11-21T01:59:58;9.30;99.90
28524;DHT22;15734;50.904;6.922;2023-11-21T02:02:25;9.30;99.90
28524;DHT22;15734;50.904;6.922;2023-11-21T02:04:51;9.30;99.90
28524;DHT22;15734;50.904;6.922;2023-11-21T02:07:16;9.20;99.90
28524;DHT22;15734;50.904;6.922;2023-11-21T02:09:44;9.30;99.90
28524;DHT22;15734;50.904;6.922;2023-11-21T02:12:10;9.20;99.90
28524;DHT22;15734;50.904;6.922;2023-11-21T02:14:36;9.20;99.90
28524;DHT22;15734;50.904;6.922;2023-11-21T02:17:02;9.20;99.90
28524;DHT22;15734;50.904;6.922;2023-11-21T02:19:29;9.10;99.90
28524;DHT22;15734;50.904;6.922;2023-11-21T02:21:57;9.10;99.90
28524;DHT22;15734;50.904;6.922;2023-11-21T02:24:32;9.10;99.90
28524;DHT22;15734;50.904;6.922;2023-11-21T02:26:57;9.10;99.90
28524;DHT22;15734;50.904;6.922;2023-11-21T02:29:23;9.10;99.90
28524;DHT22;15734;50.904;6.922;2023-11-21T02:31:53;9.10;99.90
28524;DHT22;15734;50.904;6.922;2023-11-21T02:34:20;9.00;99.90
28524;DHT22;15734;50.904;6.922;2023-11-21T02:37:20;9.10;99.90
28524;DHT22;15734;50.904;6.922;2023-11-21T02:39:46;9.00;99.90
28524;DHT22;15734;50.904;6.922;2023-11-21T02:42:11;9.00;99.90
28524;DHT22;15734;50.904;6.922;2023-11-21T02:44:37;9.00;99.90
28524;DHT22;15734;50.904;6.922;2023-11-21T02:47:02;9.00;99.90
28524;DHT22;15734;50.904;6.922;2023-11-21T02:49:29;9.00;99.90
28524;DHT22;15734;50.904;6.922;2023-11-21T02:51:55;9.10;99.90
28524;DHT22;15734;50.904;6.922;2023-11-21T02:54:21;9.10;99.90
28524;DHT22;15734;50.904;6.922;2023-11-21T02:56:47;9.10;99.90
28524;DHT22;15734;50.904;6.922;2023-11-21T02:59:14;9.10;99.90
28524;DHT22;15734;50.904;6.922;2023-11-21T03:01:41;9.10;99.90
28524;DHT22;15734;50.904;6.922;2023-11-21T03:04:06;9.10;99.90
28524;DHT22;15734;50.904;6.922;2023-11-21T03:06:32;9.10;99.90
28524;DHT22;15734;50.904;6.922;2023-11-21T03:08:57;9.10;99.90
28524;DHT22;15734;50.904;6.922;2023-11-21T03:11:23;9.10;99.90
28524;DHT22;15734;50.904;6.922;2023-11-21T03:13:48;9.10;99.90
28524;DHT22;15734;50.904;6.922;2023-11-21T03:16:15;9.10;99.90
28524;DHT22;15734;50.904;6.922;2023-11-21T03:18:40;9.10;99.90
28524;DHT22;15734;50.904;6.922;2023-11-21T03:21:07;9.10;99.90
28524;DHT22;15734;50.904;6.922;2023-11-21T03:23:36;9.10;99.90
28524;DHT22;15734;50.904;6.922;2023-11-21T03:26:03;9.10;99.90
28524;DHT22;15734;50.904;6.922;2023-11-21T03:28:28;9.10;99.90
28524;DHT22;15734;50.904;6.922;2023-11-21T03:30:55;9.10;99.90
28524;DHT22;15734;50.904;6.922;2023-11-21T03:33:21;9.10;99.90
28524;DHT22;15734;50.904;6.922;2023-11-21T03:35:47;9.10;99.90
28524;DHT22;15734;50.904;6.922;2023-11-21T03:38:13;9.10;99.90
28524;DHT22;15734;50.904;6.922;2023-11-21T03:40:39;9.10;99.90
28524;DHT22;15734;50.904;6.922;2023-11-21T03:43:07;9.10;99.90
28524;DHT22;15734;50.904;6.922;2023-11-21T03:45:33;9.10;99.90
28524;DHT22;15734;50.904;6.922;2023-11-21T03:47:58;9.10;99.90
28524;DHT22;15734;50.904;6.922;2023-11-21T03:50:28;9.10;99.90
28524;DHT22;15734;50.904;6.922;2023-11-21T03:52:53;9.10;99.90
28524;DHT22;15734;50.904;6.922;2023-11-21T03:55:19;9.10;99.90
28524;DHT22;15734;50.904;6.922;2023-11-21T03:57:44;9.10;99.90
28524;DHT22;15734;50.904;6.922;2023-11-21T04:00:11;9.10;99.90
28524;DHT22;15734;50.904;6.922;2023-11-21T04:02:36;9.10;99.90
28524;DHT22;15734;50.904;6.922;2023-11-21T04:05:02;9.00;99.90
28524;DHT22;15734;50.904;6.922;2023-11-21T04:07:28;9.00;99.90
28524;DHT22;15734;50.904;6.922;2023-11-21T04:09:54;9.00;99.90
28524;DHT22;15734;50.904;6.922;2023-11-21T04:12:20;9.00;99.90
28524;DHT22;15734;50.904;6.922;2023-11-21T04:14:45;9.00;99.90
28524;DHT22;15734;50.904;6.922;2023-11-21T04:17:11;9.00;99.90
28524;DHT22;15734;50.904;6.922;2023-11-21T04:19:36;9.00;99.90
28524;DHT22;15734;50.904;6.922;2023-11-21T04:22:02;9.00;99.90
28524;DHT22;15734;50.904;6.922;2023-11-21T04:24:28;9.00;99.90
28524;DHT22;15734;50.904;6.922;2023-11-21T04:26:53;9.10;99.90
28524;DHT22;15734;50.904;6.922;2023-11-21T04:29:19;9.10;99.90
28524;DHT22;15734;50.904;6.922;2023-11-21T04:31:44;9.10;99.90
28524;DHT22;15734;50.904;6.922;2023-11-21T04:34:10;9.10;99.90
28524;DHT22;15734;50.904;6.922;2023-11-21T04:36:35;9.10;99.90
28524;DHT22;15734;50.904;6.922;2023-11-21T04:39:01;9.10;99.90
28524;DHT22;15734;50.904;6.922;2023-11-21T04:41:26;9.10;99.90
28524;DHT22;15734;50.904;6.922;2023-11-21T04:43:52;8.90;99.90
28524;DHT22;15734;50.904;6.922;2023-11-21T04:46:17;8.80;99.90
28524;DHT22;15734;50.904;6.922;2023-11-21T04:48:43;8.70;99.90
28524;DHT22;15734;50.904;6.922;2023-11-21T04:51:09;8.70;99.90
28524;DHT22;15734;50.904;6.922;2023-11-21T04:53:37;8.60;99.90
28524;DHT22;15734;50.904;6.922;2023-11-21T04:56:02;8.60;99.90
28524;DHT22;15734;50.904;6.922;2023-11-21T04:58:28;8.70;99.90
28524;DHT22;15734;50.904;6.922;2023-11-21T05:00:54;8.70;99.90
28524;DHT22;15734;50.904;6.922;2023-11-21T05:03:19;8.60;99.90
28524;DHT22;15734;50.904;6.922;2023-11-21T05:05:45;8.60;99.90
28524;DHT22;15734;50.904;6.922;2023-11-21T05:08:11;8.70;99.90
28524;DHT22;15734;50.904;6.922;2023-11-21T05:10:37;8.60;99.90
28524;DHT22;15734;50.904;6.922;2023-11-21T05:13:04;8.60;99.90
28524;DHT22;15734;50.904;6.922;2023-11-21T05:15:35;8.50;99.90
28524;DHT22;15734;50.904;6.922;2023-11-21T05:18:00;8.40;99.90
28524;DHT22;15734;50.904;6.922;2023-11-21T05:20:26;8.30;99.90
28524;DHT22;15734;50.904;6.922;2023-11-21T05:22:51;8.30;99.90
28524;DHT22;15734;50.904;6.922;2023-11-21T05:25:17;8.30;99.90
28524;DHT22;15734;50.904;6.922;2023-11-21T05:27:47;8.20;99.90
28524;DHT22;15734;50.904;6.922;2023-11-21T05:30:13;8.20;99.90
28524;DHT22;15734;50.904;6.922;2023-11-21T05:32:40;8.30;99.90
28524;DHT22;15734;50.904;6.922;2023-11-21T05:35:09;8.30;99.90
28524;DHT22;15734;50.904;6.922;2023-11-21T05:37:38;8.30;99.90
28524;DHT22;15734;50.904;6.922;2023-11-21T05:40:08;8.30;99.90
28524;DHT22;15734;50.904;6.922;2023-11-21T05:42:34;8.20;99.90
28524;DHT22;15734;50.904;6.922;2023-11-21T05:45:00;8.30;99.90
28524;DHT22;15734;50.904;6.922;2023-11-21T05:47:43;8.30;99.90
28524;DHT22;15734;50.904;6.922;2023-11-21T05:50:09;8.30;99.90
28524;DHT22;15734;50.904;6.922;2023-11-21T05:52:38;8.30;99.90
28524;DHT22;15734;50.904;6.922;2023-11-21T05:55:05;8.30;99.90
28524;DHT22;15734;50.904;6.922;2023-11-21T05:57:34;8.30;99.90
28524;DHT22;15734;50.904;6.922;2023-11-21T06:00:11;8.40;99.90
28524;DHT22;15734;50.904;6.922;2023-11-21T06:02:43;8.40;99.90
28524;DHT22;15734;50.904;6.922;2023-11-21T06:05:10;8.40;99.90
28524;DHT22;15734;50.904;6.922;2023-11-21T06:07:37;8.50;99.90
28524;DHT22;15734;50.904;6.922;2023-11-21T06:10:07;8.40;99.90
28524;DHT22;15734;50.904;6.922;2023-11-21T06:12:35;8.40;99.90
28524;DHT22;15734;50.904;6.922;2023-11-21T06:15:05;8.40;99.90
28524;DHT22;15734;50.904;6.922;2023-11-21T06:17:33;8.40;99.90
28524;DHT22;15734;50.904;6.922;2023-11-21T06:20:02;8.40;99.90
28524;DHT22;15734;50.904;6.922;2023-11-21T06:22:37;8.40;99.90
28524;DHT22;15734;50.904;6.922;2023-11-21T06:25:04;8.30;99.90
28524;DHT22;15734;50.904;6.922;2023-11-21T06:27:31;8.40;99.90
28524;DHT22;15734;50.904;6.922;2023-11-21T06:29:57;8.50;99.90
28524;DHT22;15734;50.904;6.922;2023-11-21T06:32:23;8.50;99.90
28524;DHT22;15734;50.904;6.922;2023-11-21T06:34:48;8.50;99.90
28524;DHT22;15734;50.904;6.922;2023-11-21T06:37:15;8.50;99.90
28524;DHT22;15734;50.904;6.922;2023-11-21T06:39:40;8.60;99.90
28524;DHT22;15734;50.904;6.922;2023-11-21T06:42:06;8.50;99.90
28524;DHT22;15734;50.904;6.922;2023-11-21T06:44:32;8.50;99.90
28524;DHT22;15734;50.904;6.922;2023-11-21T06:46:59;8.50;99.90
28524;DHT22;15734;50.904;6.922;2023-11-21T06:49:24;8.60;99.90
28524;DHT22;15734;50.904;6.922;2023-11-21T06:51:51;8.50;99.90
28524;DHT22;15734;50.904;6.922;2023-11-21T06:54:16;8.60;99.90
28524;DHT22;15734;50.904;6.922;2023-11-21T06:56:42;8.60;99.90
28524;DHT22;15734;50.904;6.922;2023-11-21T06:59:07;8.60;99.90
28524;DHT22;15734;50.904;6.922;2023-11-21T07:01:34;8.60;99.90
28524;DHT22;15734;50.904;6.922;2023-11-21T07:04:05;8.50;99.90
28524;DHT22;15734;50.904;6.922;2023-11-21T07:06:31;8.60;99.90
28524;DHT22;15734;50.904;6.922;2023-11-21T07:08:56;8.50;99.90
28524;DHT22;15734;50.904;6.922;2023-11-21T07:11:22;8.50;99.90
28524;DHT22;15734;50.904;6.922;2023-11-21T07:13:48;8.50;99.90
28524;DHT22;15734;50.904;6.922;2023-11-21T07:16:13;8.50;99.90
28524;DHT22;15734;50.904;6.922;2023-11-21T07:18:40;8.50;99.90
28524;DHT22;15734;50.904;6.922;2023-11-21T07:21:06;8.50;99.90
28524;DHT22;15734;50.904;6.922;2023-11-21T07:23:32;8.50;99.90
28524;DHT22;15734;50.904;6.922;2023-11-21T07:25:57;8.50;99.90
28524;DHT22;15734;50.904;6.922;2023-11-21T07:28:24;8.60;99.90
28524;DHT22;15734;50.904;6.922;2023-11-21T07:30:49;8.70;99.90
28524;DHT22;15734;50.904;6.922;2023-11-21T07:33:15;8.70;99.90
28524;DHT22;15734;50.904;6.922;2023-11-21T07:35:41;8.80;99.90
28524;DHT22;15734;50.904;6.922;2023-11-21T07:38:07;8.90;99.90
28524;DHT22;15734;50.904;6.922;2023-11-21T07:40:32;8.90;99.90
28524;DHT22;15734;50.904;6.922;2023-11-21T07:42:58;8.90;99.90
28524;DHT22;15734;50.904;6.922;2023-11-21T07:45:24;9.00;99.90
28524;DHT22;15734;50.904;6.922;2023-11-21T07:47:53;8.90;99.90
28524;DHT22;15734;50.904;6.922;2023-11-21T07:50:19;9.00;99.90
28524;DHT22;15734;50.904;6.922;2023-11-21T07:52:45;9.00;99.90
28524;DHT22;15734;50.904;6.922;2023-11-21T07:55:11;8.90;99.90
28524;DHT22;15734;50.904;6.922;2023-11-21T07:57:37;9.00;99.90
28524;DHT22;15734;50.904;6.922;2023-11-21T08:00:04;9.10;99.90
28524;DHT22;15734;50.904;6.922;2023-11-21T08:02:32;9.00;99.90
28524;DHT22;15734;50.904;6.922;2023-11-21T08:04:57;9.00;99.90
28524;DHT22;15734;50.904;6.922;2023-11-21T08:07:23;9.00;99.90
28524;DHT22;15734;50.904;6.922;2023-11-21T08:09:48;9.00;99.90
28524;DHT22;15734;50.904;6.922;2023-11-21T08:12:15;9.10;99.90
28524;DHT22;15734;50.904;6.922;2023-11-21T08:14:41;9.10;99.90
28524;DHT22;15734;50.904;6.922;2023-11-21T08:17:06;9.10;99.90
28524;DHT22;15734;50.904;6.922;2023-11-21T08:19:32;9.20;99.90
28524;DHT22;15734;50.904;6.922;2023-11-21T08:21:58;9.20;99.90
28524;DHT22;15734;50.904;6.922;2023-11-21T08:24:24;9.20;99.90
28524;DHT22;15734;50.904;6.922;2023-11-21T08:26:50;9.30;99.90
28524;DHT22;15734;50.904;6.922;2023-11-21T08:29:17;9.30;99.90
28524;DHT22;15734;50.904;6.922;2023-11-21T08:31:43;9.30;99.90
28524;DHT22;15734;50.904;6.922;2023-11-21T08:34:12;9.40;99.90
28524;DHT22;15734;50.904;6.922;2023-11-21T08:36:42;9.40;99.90
28524;DHT22;15734;50.904;6.922;2023-11-21T08:39:08;9.40;99.90
28524;DHT22;15734;50.904;6.922;2023-11-21T08:41:35;9.40;99.90
28524;DHT22;15734;50.904;6.922;2023-11-21T08:44:02;9.40;99.90
28524;DHT22;15734;50.904;6.922;2023-11-21T08:46:31;9.40;99.90
28524;DHT22;15734;50.904;6.922;2023-11-21T08:48:56;9.50;99.90
28524;DHT22;15734;50.904;6.922;2023-11-21T08:51:22;9.40;99.90
28524;DHT22;15734;50.904;6.922;2023-11-21T08:53:47;9.40;99.90
28524;DHT22;15734;50.904;6.922;2023-11-21T08:56:13;9.40;99.90
28524;DHT22;15734;50.904;6.922;2023-11-21T08:58:42;9.50;99.90
28524;DHT22;15734;50.904;6.922;2023-11-21T09:01:07;9.40;99.90
28524;DHT22;15734;50.904;6.922;2023-11-21T09:03:33;9.40;99.90
28524;DHT22;15734;50.904;6.922;2023-11-21T09:06:00;9.50;99.90
28524;DHT22;15734;50.904;6.922;2023-11-21T09:08:25;9.50;99.90
28524;DHT22;15734;50.904;6.922;2023-11-21T09:10:51;9.60;99.90
28524;DHT22;15734;50.904;6.922;2023-11-21T09:13:17;9.70;99.90
28524;DHT22;15734;50.904;6.922;2023-11-21T09:15:43;9.70;99.90
28524;DHT22;15734;50.904;6.922;2023-11-21T09:18:14;9.50;99.90
28524;DHT22;15734;50.904;6.922;2023-11-21T09:20:41;9.60;99.90
28524;DHT22;15734;50.904;6.922;2023-11-21T09:23:07;9.70;99.90
28524;DHT22;15734;50.904;6.922;2023-11-21T09:25:33;9.70;99.90
28524;DHT22;15734;50.904;6.922;2023-11-21T09:27:59;9.80;99.90
28524;DHT22;15734;50.904;6.922;2023-11-21T09:30:25;9.90;99.90
28524;DHT22;15734;50.904;6.922;2023-11-21T09:32:51;9.90;99.90
28524;DHT22;15734;50.904;6.922;2023-11-21T09:35:17;10.00;99.90
28524;DHT22;15734;50.904;6.922;2023-11-21T09:37:46;9.90;99.90
28524;DHT22;15734;50.904;6.922;2023-11-21T09:40:12;9.90;99.90
28524;DHT22;15734;50.904;6.922;2023-11-21T09:42:40;9.90;99.90
28524;DHT22;15734;50.904;6.922;2023-11-21T09:45:24;9.90;99.90
28524;DHT22;15734;50.904;6.922;2023-11-21T09:47:52;9.90;99.90
28524;DHT22;15734;50.904;6.922;2023-11-21T09:50:20;9.90;99.90
28524;DHT22;15734;50.904;6.922;2023-11-21T09:55:37;9.80;99.90
28524;DHT22;15734;50.904;6.922;2023-11-21T09:58:04;9.80;99.90
28524;DHT22;15734;50.904;6.922;2023-11-21T10:00:33;9.90;99.90
28524;DHT22;15734;50.904;6.922;2023-11-21T10:02:59;10.00;99.90
28524;DHT22;15734;50.904;6.922;2023-11-21T10:05:25;10.00;99.90
28524;DHT22;15734;50.904;6.922;2023-11-21T10:07:51;10.00;99.90
28524;DHT22;15734;50.904;6.922;2023-11-21T10:10:19;10.00;99.90
28524;DHT22;15734;50.904;6.922;2023-11-21T10:12:49;10.00;99.90
28524;DHT22;15734;50.904;6.922;2023-11-21T10:15:21;10.00;99.90
28524;DHT22;15734;50.904;6.922;2023-11-21T10:17:49;10.00;99.90
28524;DHT22;15734;50.904;6.922;2023-11-21T10:20:16;10.00;99.90
28524;DHT22;15734;50.904;6.922;2023-11-21T10:22:43;10.00;99.90
28524;DHT22;15734;50.904;6.922;2023-11-21T10:25:09;10.00;99.90
28524;DHT22;15734;50.904;6.922;2023-11-21T10:27:38;10.10;99.90
28524;DHT22;15734;50.904;6.922;2023-11-21T10:30:05;10.00;99.90
28524;DHT22;15734;50.904;6.922;2023-11-21T10:32:31;10.00;99.90
28524;DHT22;15734;50.904;6.922;2023-11-21T10:35:01;10.00;99.90
28524;DHT22;15734;50.904;6.922;2023-11-21T10:37:34;10.10;99.90
28524;DHT22;15734;50.904;6.922;2023-11-21T10:40:00;10.10;99.90
28524;DHT22;15734;50.904;6.922;2023-11-21T10:42:26;10.10;99.90
28524;DHT22;15734;50.904;6.922;2023-11-21T10:44:53;10.10;99.90
28524;DHT22;15734;50.904;6.922;2023-11-21T10:47:19;10.10;99.90
28524;DHT22;15734;50.904;6.922;2023-11-21T10:49:48;10.10;99.90
28524;DHT22;15734;50.904;6.922;2023-11-21T10:52:14;10.10;99.90
28524;DHT22;15734;50.904;6.922;2023-11-21T10:54:43;10.10;99.90
28524;DHT22;15734;50.904;6.922;2023-11-21T10:57:10;10.20;99.90
28524;DHT22;15734;50.904;6.922;2023-11-21T10:59:36;10.20;99.90
28524;DHT22;15734;50.904;6.922;2023-11-21T11:02:26;10.20;99.90
28524;DHT22;15734;50.904;6.922;2023-11-21T11:04:54;10.20;99.90
28524;DHT22;15734;50.904;6.922;2023-11-21T11:07:26;10.20;99.90
28524;DHT22;15734;50.904;6.922;2023-11-21T11:09:55;10.20;99.90
28524;DHT22;15734;50.904;6.922;2023-11-21T11:12:21;10.20;99.90
28524;DHT22;15734;50.904;6.922;2023-11-21T11:14:48;10.20;99.90
28524;DHT22;15734;50.904;6.922;2023-11-21T11:17:14;10.30;99.90
28524;DHT22;15734;50.904;6.922;2023-11-21T11:19:40;10.40;99.90
28524;DHT22;15734;50.904;6.922;2023-11-21T11:25:14;10.30;99.90
28524;DHT22;15734;50.904;6.922;2023-11-21T11:27:54;10.40;99.90
28524;DHT22;15734;50.904;6.922;2023-11-21T11:36:02;10.30;99.90
28524;DHT22;15734;50.904;6.922;2023-11-21T11:38:33;10.30;99.90
28524;DHT22;15734;50.904;6.922;2023-11-21T11:41:02;10.30;99.90
28524;DHT22;15734;50.904;6.922;2023-11-21T11:43:29;10.30;99.90
28524;DHT22;15734;50.904;6.922;2023-11-21T11:45:57;10.30;99.90
28524;DHT22;15734;50.904;6.922;2023-11-21T11:48:24;10.30;99.90
28524;DHT22;15734;50.904;6.922;2023-11-21T11:51:04;10.30;99.90
28524;DHT22;15734;50.904;6.922;2023-11-21T11:53:37;10.30;99.90
28524;DHT22;15734;50.904;6.922;2023-11-21T11:58:50;10.30;99.90
28524;DHT22;15734;50.904;6.922;2023-11-21T12:01:20;10.40;99.90
28524;DHT22;15734;50.904;6.922;2023-11-21T12:06:41;10.50;99.90
28524;DHT22;15734;50.904;6.922;2023-11-21T12:09:19;10.50;99.90
28524;DHT22;15734;50.904;6.922;2023-11-21T12:11:46;10.50;99.90
28524;DHT22;15734;50.904;6.922;2023-11-21T12:14:12;10.70;99.90
28524;DHT22;15734;50.904;6.922;2023-11-21T12:16:39;10.70;99.90
28524;DHT22;15734;50.904;6.922;2023-11-21T12:19:04;10.60;99.90
28524;DHT22;15734;50.904;6.922;2023-11-21T12:21:30;10.60;99.90
28524;DHT22;15734;50.904;6.922;2023-11-21T12:23:57;10.60;99.90
28524;DHT22;15734;50.904;6.922;2023-11-21T12:26:27;10.60;99.90
28524;DHT22;15734;50.904;6.922;2023-11-21T12:28:53;10.60;99.90
28524;DHT22;15734;50.904;6.922;2023-11-21T12:31:22;10.70;99.90
28524;DHT22;15734;50.904;6.922;2023-11-21T12:33:47;10.60;99.90
28524;DHT22;15734;50.904;6.922;2023-11-21T12:36:13;10.50;99.90
28524;DHT22;15734;50.904;6.922;2023-11-21T12:38:39;10.60;99.90
28524;DHT22;15734;50.904;6.922;2023-11-21T12:41:05;10.70;99.90
28524;DHT22;15734;50.904;6.922;2023-11-21T12:43:32;10.70;99.90
28524;DHT22;15734;50.904;6.922;2023-11-21T12:46:07;10.70;99.90
28524;DHT22;15734;50.904;6.922;2023-11-21T12:48:37;10.80;99.90
28524;DHT22;15734;50.904;6.922;2023-11-21T12:51:05;10.80;99.90
28524;DHT22;15734;50.904;6.922;2023-11-21T12:53:32;10.80;99.90
28524;DHT22;15734;50.904;6.922;2023-11-21T12:56:06;10.90;99.90
28524;DHT22;15734;50.904;6.922;2023-11-21T12:58:34;10.90;99.90
28524;DHT22;15734;50.904;6.922;2023-11-21T13:01:01;11.00;99.90
28524;DHT22;15734;50.904;6.922;2023-11-21T13:03:30;11.10;99.90
28524;DHT22;15734;50.904;6.922;2023-11-21T13:05:56;11.10;99.90
28524;DHT22;15734;50.904;6.922;2023-11-21T13:08:25;11.00;99.90
28524;DHT22;15734;50.904;6.922;2023-11-21T13:10:53;11.00;99.90
28524;DHT22;15734;50.904;6.922;2023-11-21T13:13:20;10.90;99.90
28524;DHT22;15734;50.904;6.922;2023-11-21T13:15:50;10.90;99.90
28524;DHT22;15734;50.904;6.922;2023-11-21T13:18:17;10.90;99.90
28524;DHT22;15734;50.904;6.922;2023-11-21T13:20:44;10.80;99.90
28524;DHT22;15734;50.904;6.922;2023-11-21T13:23:10;10.80;99.90
28524;DHT22;15734;50.904;6.922;2023-11-21T13:25:42;10.80;99.90
28524;DHT22;15734;50.904;6.922;2023-11-21T13:28:08;10.90;99.90
28524;DHT22;15734;50.904;6.922;2023-11-21T13:30:37;10.90;99.90
28524;DHT22;15734;50.904;6.922;2023-11-21T13:33:06;10.90;99.90
28524;DHT22;15734;50.904;6.922;2023-11-21T13:35:35;10.90;99.90
28524;DHT22;15734;50.904;6.922;2023-11-21T13:38:12;11.00;99.90
28524;DHT22;15734;50.904;6.922;2023-11-21T13:40:40;11.00;99.90
28524;DHT22;15734;50.904;6.922;2023-11-21T13:43:10;11.00;99.90
28524;DHT22;15734;50.904;6.922;2023-11-21T13:45:39;11.00;99.90
28524;DHT22;15734;50.904;6.922;2023-11-21T13:48:06;11.00;99.90
28524;DHT22;15734;50.904;6.922;2023-11-21T13:50:44;11.00;99.90
28524;DHT22;15734;50.904;6.922;2023-11-21T13:53:20;10.90;99.90
28524;DHT22;15734;50.904;6.922;2023-11-21T13:55:50;10.90;99.90
28524;DHT22;15734;50.904;6.922;2023-11-21T13:58:17;10.80;99.90
28524;DHT22;15734;50.904;6.922;2023-11-21T14:00:49;10.80;99.90
28524;DHT22;15734;50.904;6.922;2023-11-21T14:03:22;10.80;99.90
28524;DHT22;15734;50.904;6.922;2023-11-21T14:05:49;10.70;99.90
28524;DHT22;15734;50.904;6.922;2023-11-21T14:08:21;10.70;99.90
28524;DHT22;15734;50.904;6.922;2023-11-21T14:10:49;10.70;99.90
28524;DHT22;15734;50.904;6.922;2023-11-21T14:13:19;10.70;99.90
28524;DHT22;15734;50.904;6.922;2023-11-21T14:15:48;10.70;99.90
28524;DHT22;15734;50.904;6.922;2023-11-21T14:18:16;10.70;99.90
28524;DHT22;15734;50.904;6.922;2023-11-21T14:20:43;10.70;99.90
28524;DHT22;15734;50.904;6.922;2023-11-21T14:23:10;10.70;99.90
28524;DHT22;15734;50.904;6.922;2023-11-21T14:25:37;10.80;99.90
28524;DHT22;15734;50.904;6.922;2023-11-21T14:28:03;10.80;99.90
28524;DHT22;15734;50.904;6.922;2023-11-21T14:30:30;10.80;99.90
28524;DHT22;15734;50.904;6.922;2023-11-21T14:32:58;10.80;99.90
28524;DHT22;15734;50.904;6.922;2023-11-21T14:35:24;10.80;99.90
28524;DHT22;15734;50.904;6.922;2023-11-21T14:37:50;10.80;99.90
28524;DHT22;15734;50.904;6.922;2023-11-21T14:40:16;10.80;99.90
28524;DHT22;15734;50.904;6.922;2023-11-21T14:42:44;10.80;99.90
28524;DHT22;15734;50.904;6.922;2023-11-21T14:45:13;10.80;99.90
28524;DHT22;15734;50.904;6.922;2023-11-21T14:47:41;10.80;99.90
28524;DHT22;15734;50.904;6.922;2023-11-21T14:50:12;10.80;99.90
28524;DHT22;15734;50.904;6.922;2023-11-21T14:53:07;10.80;99.90
28524;DHT22;15734;50.904;6.922;2023-11-21T14:55:41;10.80;99.90
28524;DHT22;15734;50.904;6.922;2023-11-21T14:58:22;10.80;99.90
28524;DHT22;15734;50.904;6.922;2023-11-21T15:00:57;10.70;99.90
28524;DHT22;15734;50.904;6.922;2023-11-21T15:03:28;10.70;99.90
28524;DHT22;15734;50.904;6.922;2023-11-21T15:06:09;10.70;99.90
28524;DHT22;15734;50.904;6.922;2023-11-21T15:08:56;10.70;99.90
28524;DHT22;15734;50.904;6.922;2023-11-21T15:11:39;10.70;99.90
28524;DHT22;15734;50.904;6.922;2023-11-21T15:14:09;10.70;99.90
28524;DHT22;15734;50.904;6.922;2023-11-21T15:16:38;10.70;99.90
28524;DHT22;15734;50.904;6.922;2023-11-21T15:19:11;10.70;99.90
28524;DHT22;15734;50.904;6.922;2023-11-21T15:21:37;10.70;99.90
28524;DHT22;15734;50.904;6.922;2023-11-21T15:24:03;10.70;99.90
28524;DHT22;15734;50.904;6.922;2023-11-21T15:26:29;10.70;99.90
28524;DHT22;15734;50.904;6.922;2023-11-21T15:28:55;10.70;99.90
28524;DHT22;15734;50.904;6.922;2023-11-21T15:31:21;10.70;99.90
28524;DHT22;15734;50.904;6.922;2023-11-21T15:33:51;10.70;99.90
28524;DHT22;15734;50.904;6.922;2023-11-21T15:36:18;10.70;99.90
28524;DHT22;15734;50.904;6.922;2023-11-21T15:38:44;10.60;99.90
28524;DHT22;15734;50.904;6.922;2023-11-21T15:41:10;10.60;99.90
28524;DHT22;15734;50.904;6.922;2023-11-21T15:43:37;10.50;99.90
28524;DHT22;15734;50.904;6.922;2023-11-21T15:46:02;10.50;99.90
28524;DHT22;15734;50.904;6.922;2023-11-21T15:48:33;10.50;99.90
28524;DHT22;15734;50.904;6.922;2023-11-21T15:50:59;10.50;99.90
28524;DHT22;15734;50.904;6.922;2023-11-21T15:53:24;10.40;99.90
28524;DHT22;15734;50.904;6.922;2023-11-21T15:55:50;10.40;99.90
28524;DHT22;15734;50.904;6.922;2023-11-21T15:58:16;10.40;99.90